Time;durP1;ratioP1;P1;durP2;ratioP2;P2;SDS_P1;SDS_P2;PMS_P1;PMS_P2;Temp;Humidity;BMP_temperature;BMP_pressure;BME280_temperature;BME280_humidity;BME280_pressure;Samples;Min_cycle;Max_cycle;Signal;HPM_P1;HPM_P2
2022/12/08 00:01:32;;;;;;;11.10;5.80;;;;;;;;;;5068440;28;20107;-83
2022/12/08 00:04:02;;;;;;;9.18;4.43;;;;;;;;;;5068690;28;20055;-83
2022/12/08 00:09:30;;;;;;;7.45;4.28;;;;;;;;;;5084048;28;20067;-83
2022/12/08 00:12:00;;;;;;;8.52;4.45;;;;;;;;;;5047664;28;20040;-83
2022/12/08 00:14:28;;;;;;;7.13;3.53;;;;;;;;;;5047300;28;20040;-83
2022/12/08 00:16:54;;;;;;;9.85;4.55;;;;;;;;;;5047271;28;20061;-83
2022/12/08 00:19:21;;;;;;;7.38;4.20;;;;;;;;;;5064474;28;20084;-83
2022/12/08 00:21:47;;;;;;;7.75;4.25;;;;;;;;;;5061386;28;20024;-83
2022/12/08 00:24:13;;;;;;;8.65;3.90;;;;;;;;;;5084655;28;20039;-83
2022/12/08 00:26:39;;;;;;;7.40;3.90;;;;;;;;;;5052869;28;20052;-83
2022/12/08 00:29:05;;;;;;;8.18;3.65;;;;;;;;;;5081943;28;20032;-83
2022/12/08 00:31:31;;;;;;;6.57;3.55;;;;;;;;;;5060708;28;20044;-83
2022/12/08 00:33:57;;;;;;;8.05;3.72;;;;;;;;;;5078140;28;20029;-83
2022/12/08 00:36:23;;;;;;;7.00;3.45;;;;;;;;;;5053721;28;20021;-83
2022/12/08 00:38:49;;;;;;;7.15;3.72;;;;;;;;;;5074321;28;20035;-84
2022/12/08 00:41:16;;;;;;;7.10;3.75;;;;;;;;;;5071462;28;20095;-83
2022/12/08 00:43:42;;;;;;;7.72;4.10;;;;;;;;;;5058562;28;20399;-84
2022/12/08 00:46:09;;;;;;;7.40;3.70;;;;;;;;;;5062431;28;20048;-83
2022/12/08 00:48:35;;;;;;;8.57;3.60;;;;;;;;;;5067158;28;20013;-82
2022/12/08 00:51:01;;;;;;;8.45;3.88;;;;;;;;;;5054668;28;20025;-83
2022/12/08 00:53:27;;;;;;;9.65;4.50;;;;;;;;;;5063963;28;20024;-84
2022/12/08 00:55:53;;;;;;;8.82;4.47;;;;;;;;;;5058577;28;20088;-84
2022/12/08 00:58:19;;;;;;;9.90;4.22;;;;;;;;;;5066391;28;20099;-84
2022/12/08 01:00:45;;;;;;;12.10;5.60;;;;;;;;;;5065705;28;20510;-84
2022/12/08 01:03:12;;;;;;;10.35;4.72;;;;;;;;;;5084400;28;20047;-84
2022/12/08 01:05:38;;;;;;;8.82;4.35;;;;;;;;;;5087809;28;20036;-83
2022/12/08 01:08:08;;;;;;;9.30;4.47;;;;;;;;;;5068413;28;20028;-83
2022/12/08 01:10:35;;;;;;;9.68;3.80;;;;;;;;;;5068428;28;20033;-83
2022/12/08 01:13:01;;;;;;;7.78;3.80;;;;;;;;;;5069828;28;20050;-83
2022/12/08 01:15:27;;;;;;;8.60;3.88;;;;;;;;;;5068385;28;20541;-83
2022/12/08 01:17:53;;;;;;;7.85;3.70;;;;;;;;;;5069934;28;20116;-83
2022/12/08 01:20:19;;;;;;;7.47;3.88;;;;;;;;;;5068581;28;20115;-83
2022/12/08 01:22:45;;;;;;;8.57;3.80;;;;;;;;;;5070309;28;20394;-85
2022/12/08 01:25:11;;;;;;;10.73;4.47;;;;;;;;;;5086214;28;20021;-83
2022/12/08 01:27:37;;;;;;;9.05;4.47;;;;;;;;;;5068355;28;20051;-83
2022/12/08 01:30:03;;;;;;;8.50;4.10;;;;;;;;;;5084374;28;20028;-84
2022/12/08 01:32:29;;;;;;;7.55;3.90;;;;;;;;;;5067624;28;20029;-84
2022/12/08 01:34:55;;;;;;;7.72;3.60;;;;;;;;;;5068303;28;20120;-83
2022/12/08 01:37:21;;;;;;;8.15;3.95;;;;;;;;;;5050455;28;20033;-84
2022/12/08 01:39:47;;;;;;;6.88;3.58;;;;;;;;;;5073982;28;20035;-83
2022/12/08 01:42:21;;;;;;;8.00;4.00;;;;;;;;;;5052682;28;20048;-84
2022/12/08 01:44:52;;;;;;;7.93;4.13;;;;;;;;;;5067189;28;20088;-83
2022/12/08 01:47:18;;;;;;;8.70;4.07;;;;;;;;;;5049507;28;20510;-83
2022/12/08 01:49:44;;;;;;;9.55;4.75;;;;;;;;;;5050969;28;20495;-84
2022/12/08 01:52:22;;;;;;;7.63;3.58;;;;;;;;;;5067439;28;20050;-84
2022/12/08 01:54:54;;;;;;;8.00;3.92;;;;;;;;;;5084813;28;20410;-84
2022/12/08 01:57:20;;;;;;;11.33;4.93;;;;;;;;;;5083639;28;20295;-84
2022/12/08 01:59:49;;;;;;;9.57;4.82;;;;;;;;;;5056199;28;20792;-82
2022/12/08 02:02:15;;;;;;;10.93;5.57;;;;;;;;;;5071805;28;20032;-83
2022/12/08 02:04:41;;;;;;;11.55;5.45;;;;;;;;;;5070729;28;20161;-83
2022/12/08 02:07:07;;;;;;;10.43;5.38;;;;;;;;;;5069452;28;20028;-83
2022/12/08 02:09:34;;;;;;;9.57;5.18;;;;;;;;;;5067958;28;20044;-83
2022/12/08 02:12:00;;;;;;;10.10;4.78;;;;;;;;;;5064984;28;20029;-83
2022/12/08 02:14:26;;;;;;;8.38;4.30;;;;;;;;;;5065198;28;20048;-83
2022/12/08 02:17:11;;;;;;;10.40;4.93;;;;;;;;;;5049149;28;20526;-84
2022/12/08 02:19:49;;;;;;;11.00;5.20;;;;;;;;;;5049793;28;20021;-83
2022/12/08 02:22:35;;;;;;;10.18;5.85;;;;;;;;;;5067298;28;20036;-84
2022/12/08 02:25:14;;;;;;;10.82;5.45;;;;;;;;;;5067846;28;20024;-83
2022/12/08 02:27:46;;;;;;;9.65;4.65;;;;;;;;;;5050853;28;20055;-84
2022/12/08 02:30:12;;;;;;;10.75;5.43;;;;;;;;;;5066526;28;20020;-83
2022/12/08 02:32:38;;;;;;;10.73;5.47;;;;;;;;;;5050142;28;20572;-84
2022/12/08 02:35:07;;;;;;;9.65;4.65;;;;;;;;;;5067754;28;20033;-83
2022/12/08 02:37:36;;;;;;;8.80;5.45;;;;;;;;;;5067034;28;20029;-83
2022/12/08 02:40:25;;;;;;;11.27;6.10;;;;;;;;;;5086578;28;20024;-83
2022/12/08 02:42:54;;;;;;;9.75;5.25;;;;;;;;;;5029387;28;20061;-84
2022/12/08 02:45:28;;;;;;;10.43;5.70;;;;;;;;;;5061629;28;20044;-83
2022/12/08 02:47:54;;;;;;;10.80;5.47;;;;;;;;;;5069368;28;20502;-84
2022/12/08 02:50:20;;;;;;;11.30;5.15;;;;;;;;;;5068804;28;20024;-83
2022/12/08 02:52:47;;;;;;;9.35;4.88;;;;;;;;;;5086749;28;20489;-83
2022/12/08 02:55:13;;;;;;;11.80;4.82;;;;;;;;;;5065837;28;20032;-83
2022/12/08 02:57:42;;;;;;;8.35;5.22;;;;;;;;;;5066648;28;20037;-84
2022/12/08 03:00:14;;;;;;;9.30;5.32;;;;;;;;;;5060264;28;20124;-83
2022/12/08 03:02:43;;;;;;;10.38;5.82;;;;;;;;;;5069272;28;20016;-83
2022/12/08 03:05:09;;;;;;;10.40;5.05;;;;;;;;;;5067274;28;20494;-83
2022/12/08 03:07:44;;;;;;;7.43;4.95;;;;;;;;;;5060731;28;20024;-83
2022/12/08 03:10:13;;;;;;;10.23;5.30;;;;;;;;;;5048718;28;20029;-84
2022/12/08 03:12:43;;;;;;;8.65;4.80;;;;;;;;;;5085946;28;20029;-83
2022/12/08 03:15:12;;;;;;;7.72;4.82;;;;;;;;;;5066023;28;20251;-84
2022/12/08 03:17:40;;;;;;;8.82;4.78;;;;;;;;;;5085747;28;20040;-83
2022/12/08 03:20:10;;;;;;;9.07;5.30;;;;;;;;;;5080407;28;20029;-83
2022/12/08 03:22:38;;;;;;;9.18;5.18;;;;;;;;;;5065853;28;20021;-84
2022/12/08 03:25:04;;;;;;;7.65;5.07;;;;;;;;;;5065884;28;20541;-84
2022/12/08 03:27:30;;;;;;;9.60;5.03;;;;;;;;;;5048456;28;20048;-84
2022/12/08 03:29:57;;;;;;;7.22;4.30;;;;;;;;;;5067579;28;20047;-83
2022/12/08 03:32:38;;;;;;;8.68;5.03;;;;;;;;;;5086326;28;20035;-84
2022/12/08 03:35:13;;;;;;;9.82;4.95;;;;;;;;;;5079372;28;20025;-83
2022/12/08 03:37:40;;;;;;;11.07;5.63;;;;;;;;;;5083961;28;20016;-84
2022/12/08 03:40:08;;;;;;;9.05;5.18;;;;;;;;;;5067639;28;20070;-84
2022/12/08 03:42:34;;;;;;;9.63;4.95;;;;;;;;;;5085597;28;20036;-84
2022/12/08 03:45:00;;;;;;;8.77;4.80;;;;;;;;;;5067456;28;20017;-84
2022/12/08 03:47:26;;;;;;;8.77;5.22;;;;;;;;;;5068093;28;20119;-83
2022/12/08 03:49:54;;;;;;;7.97;4.32;;;;;;;;;;5053717;28;20165;-83
2022/12/08 03:52:20;;;;;;;9.73;5.75;;;;;;;;;;5067230;28;20111;-84
2022/12/08 03:54:46;;;;;;;9.20;4.82;;;;;;;;;;5067969;28;20028;-83
2022/12/08 03:57:13;;;;;;;8.73;5.03;;;;;;;;;;5073152;28;20040;-83
2022/12/08 03:59:39;;;;;;;10.38;5.13;;;;;;;;;;5076263;28;20025;-83
2022/12/08 04:02:05;;;;;;;9.25;5.10;;;;;;;;;;5062535;28;20033;-83
2022/12/08 04:04:31;;;;;;;9.52;5.60;;;;;;;;;;5054259;28;20391;-83
2022/12/08 04:06:57;;;;;;;9.15;5.63;;;;;;;;;;5086632;28;20033;-83
2022/12/08 04:09:23;;;;;;;9.30;5.20;;;;;;;;;;5073714;28;20024;-83
2022/12/08 04:11:49;;;;;;;8.98;5.60;;;;;;;;;;5085997;28;20418;-83
2022/12/08 04:14:15;;;;;;;9.50;5.18;;;;;;;;;;5085946;28;20460;-83
2022/12/08 04:16:41;;;;;;;9.10;4.75;;;;;;;;;;5068345;28;20025;-83
2022/12/08 04:19:07;;;;;;;10.35;5.22;;;;;;;;;;5083396;28;20027;-83
2022/12/08 04:21:33;;;;;;;10.02;5.10;;;;;;;;;;5067142;28;20032;-83
2022/12/08 04:23:59;;;;;;;8.95;5.43;;;;;;;;;;5068179;28;20025;-83
2022/12/08 04:26:25;;;;;;;10.80;5.65;;;;;;;;;;5055148;28;20501;-83
2022/12/08 04:28:51;;;;;;;9.68;6.03;;;;;;;;;;5053481;28;20075;-83
2022/12/08 04:31:17;;;;;;;9.63;5.38;;;;;;;;;;5068183;28;20035;-82
2022/12/08 04:33:44;;;;;;;11.05;5.78;;;;;;;;;;5066823;28;20039;-83
2022/12/08 04:36:10;;;;;;;7.95;5.32;;;;;;;;;;5073694;28;20033;-83
2022/12/08 04:38:36;;;;;;;11.43;5.75;;;;;;;;;;5048045;28;20021;-83
2022/12/08 04:41:02;;;;;;;11.30;6.18;;;;;;;;;;5078538;28;20036;-83
2022/12/08 04:43:28;;;;;;;11.57;6.05;;;;;;;;;;5051358;28;20494;-83
2022/12/08 04:45:54;;;;;;;10.57;5.82;;;;;;;;;;5052183;28;20044;-82
2022/12/08 04:48:20;;;;;;;10.77;5.72;;;;;;;;;;5052717;28;20017;-83
2022/12/08 04:50:46;;;;;;;11.30;5.68;;;;;;;;;;5061929;28;20036;-83
2022/12/08 04:53:13;;;;;;;9.60;6.00;;;;;;;;;;5067730;28;20025;-83
2022/12/08 04:55:42;;;;;;;9.38;5.47;;;;;;;;;;5069447;28;20032;-83
2022/12/08 04:58:11;;;;;;;9.90;5.82;;;;;;;;;;5051632;28;20040;-83
2022/12/08 05:00:37;;;;;;;10.50;6.00;;;;;;;;;;5071093;28;20030;-83
2022/12/08 05:03:03;;;;;;;9.98;5.30;;;;;;;;;;5092199;28;20025;-83
2022/12/08 05:05:29;;;;;;;9.95;6.03;;;;;;;;;;5066955;28;20017;-83
2022/12/08 05:07:55;;;;;;;10.15;5.72;;;;;;;;;;5080906;28;20051;-83
2022/12/08 05:10:21;;;;;;;9.75;6.28;;;;;;;;;;5088281;28;20028;-83
2022/12/08 05:12:47;;;;;;;11.88;6.63;;;;;;;;;;5070002;28;20023;-83
2022/12/08 05:15:13;;;;;;;9.40;5.75;;;;;;;;;;5068645;28;20029;-83
2022/12/08 05:17:39;;;;;;;10.15;5.90;;;;;;;;;;5055016;28;20088;-83
2022/12/08 05:20:05;;;;;;;9.80;5.18;;;;;;;;;;5069495;28;20032;-83
2022/12/08 05:22:31;;;;;;;9.88;5.75;;;;;;;;;;5051187;28;20033;-83
2022/12/08 05:24:57;;;;;;;9.27;5.68;;;;;;;;;;5068214;28;20036;-83
2022/12/08 05:27:24;;;;;;;9.13;5.82;;;;;;;;;;5071585;28;20028;-83
2022/12/08 05:29:50;;;;;;;12.65;6.70;;;;;;;;;;5086538;28;20032;-83
2022/12/08 05:32:16;;;;;;;11.25;5.47;;;;;;;;;;5076515;28;20101;-83
2022/12/08 05:34:42;;;;;;;12.23;6.47;;;;;;;;;;5052189;28;20672;-83
2022/12/08 05:37:08;;;;;;;11.55;6.50;;;;;;;;;;5054919;28;20036;-83
2022/12/08 05:39:34;;;;;;;12.70;6.18;;;;;;;;;;5078075;28;20029;-83
2022/12/08 05:42:00;;;;;;;9.68;5.85;;;;;;;;;;5053125;28;20070;-83
2022/12/08 05:44:26;;;;;;;10.70;6.85;;;;;;;;;;5069456;28;20026;-83
2022/12/08 05:46:52;;;;;;;10.02;6.30;;;;;;;;;;5057883;28;20086;-83
2022/12/08 05:49:19;;;;;;;11.27;5.60;;;;;;;;;;5050358;28;20075;-83
2022/12/08 05:51:45;;;;;;;10.15;5.60;;;;;;;;;;5067743;28;20329;-83
2022/12/08 05:54:13;;;;;;;10.23;6.07;;;;;;;;;;5050711;28;20029;-83
2022/12/08 05:56:39;;;;;;;10.43;6.03;;;;;;;;;;5052441;28;20021;-83
2022/12/08 05:59:08;;;;;;;9.95;6.07;;;;;;;;;;5085575;28;20027;-82
2022/12/08 06:01:34;;;;;;;12.75;5.82;;;;;;;;;;5090160;28;20020;-83
2022/12/08 06:04:01;;;;;;;10.07;7.05;;;;;;;;;;5070787;28;20055;-82
2022/12/08 06:06:28;;;;;;;9.98;6.25;;;;;;;;;;5074945;28;20013;-82
2022/12/08 06:08:54;;;;;;;12.70;6.70;;;;;;;;;;5072941;28;20036;-83
2022/12/08 06:11:21;;;;;;;10.65;6.38;;;;;;;;;;5065886;28;20032;-83
2022/12/08 06:13:48;;;;;;;10.75;6.00;;;;;;;;;;5068737;28;20029;-85
2022/12/08 06:16:14;;;;;;;13.23;6.70;;;;;;;;;;5077543;28;20029;-83
2022/12/08 06:18:40;;;;;;;10.57;6.25;;;;;;;;;;5051703;28;20064;-83
2022/12/08 06:21:08;;;;;;;12.13;7.05;;;;;;;;;;5074342;28;20013;-83
2022/12/08 06:23:34;;;;;;;12.38;7.70;;;;;;;;;;5050613;28;20021;-82
2022/12/08 06:26:03;;;;;;;11.85;6.80;;;;;;;;;;5055294;28;20029;-83
2022/12/08 06:28:30;;;;;;;10.70;7.47;;;;;;;;;;5050476;28;20032;-83
2022/12/08 06:30:56;;;;;;;14.20;7.53;;;;;;;;;;5069007;28;20056;-83
2022/12/08 06:33:22;;;;;;;12.82;6.90;;;;;;;;;;5070668;28;20050;-83
2022/12/08 06:35:48;;;;;;;14.77;6.85;;;;;;;;;;5052954;28;20037;-83
2022/12/08 06:38:14;;;;;;;14.27;6.75;;;;;;;;;;5057344;28;20035;-83
2022/12/08 06:40:40;;;;;;;13.75;8.20;;;;;;;;;;5060630;28;20380;-82
2022/12/08 06:43:06;;;;;;;13.27;8.85;;;;;;;;;;5075015;28;20021;-82
2022/12/08 06:45:32;;;;;;;12.02;7.28;;;;;;;;;;5055282;28;20101;-82
2022/12/08 06:48:00;;;;;;;11.43;6.85;;;;;;;;;;5072083;28;20032;-82
2022/12/08 06:50:27;;;;;;;12.35;7.10;;;;;;;;;;5060333;28;20028;-82
2022/12/08 06:52:53;;;;;;;12.88;6.82;;;;;;;;;;5067341;28;20032;-82
2022/12/08 06:55:19;;;;;;;12.55;8.05;;;;;;;;;;5053259;28;20032;-82
2022/12/08 06:57:45;;;;;;;14.00;7.50;;;;;;;;;;5068369;28;20036;-82
2022/12/08 07:00:12;;;;;;;12.73;7.68;;;;;;;;;;5071269;28;20047;-82
2022/12/08 07:02:38;;;;;;;12.23;7.38;;;;;;;;;;5057821;28;20016;-82
2022/12/08 07:05:04;;;;;;;11.00;7.47;;;;;;;;;;5048729;28;20040;-82
2022/12/08 07:07:30;;;;;;;12.25;6.95;;;;;;;;;;5047487;28;20025;-82
2022/12/08 07:09:56;;;;;;;12.25;7.07;;;;;;;;;;5047438;28;20021;-82
2022/12/08 07:12:22;;;;;;;12.05;7.57;;;;;;;;;;5046664;28;20082;-85
2022/12/08 07:14:48;;;;;;;11.77;7.28;;;;;;;;;;5046710;28;20281;-83
2022/12/08 07:17:14;;;;;;;12.70;7.22;;;;;;;;;;5049217;28;20045;-82
2022/12/08 07:19:40;;;;;;;12.07;7.90;;;;;;;;;;5066592;28;20035;-82
2022/12/08 07:22:06;;;;;;;16.42;8.85;;;;;;;;;;5067440;28;20131;-82
2022/12/08 07:24:32;;;;;;;12.48;8.10;;;;;;;;;;5068322;28;20084;-82
2022/12/08 07:26:58;;;;;;;12.98;7.90;;;;;;;;;;5069286;28;20033;-82
2022/12/08 07:29:24;;;;;;;14.45;8.13;;;;;;;;;;5051024;28;20029;-85
2022/12/08 07:31:50;;;;;;;11.57;7.20;;;;;;;;;;5050629;28;20036;-82
2022/12/08 07:34:16;;;;;;;15.65;8.30;;;;;;;;;;5067447;28;20480;-82
2022/12/08 07:36:42;;;;;;;15.40;7.28;;;;;;;;;;5049502;28;20081;-83
2022/12/08 07:39:11;;;;;;;14.50;7.85;;;;;;;;;;5067038;28;20021;-83
2022/12/08 07:41:37;;;;;;;13.43;8.60;;;;;;;;;;5066956;28;20048;-83
2022/12/08 07:44:03;;;;;;;13.60;8.30;;;;;;;;;;5049413;28;20391;-83
2022/12/08 07:46:29;;;;;;;14.65;7.90;;;;;;;;;;5049786;28;20268;-83
2022/12/08 07:48:55;;;;;;;16.15;8.68;;;;;;;;;;5048523;28;20029;-83
2022/12/08 07:51:23;;;;;;;14.63;8.73;;;;;;;;;;5049451;28;20024;-83
2022/12/08 07:53:50;;;;;;;14.93;9.43;;;;;;;;;;5069386;28;20013;-82
2022/12/08 07:56:16;;;;;;;13.52;8.48;;;;;;;;;;5070272;28;20029;-83
2022/12/08 07:58:44;;;;;;;16.80;9.63;;;;;;;;;;5050378;28;20051;-83
2022/12/08 08:01:19;;;;;;;12.15;8.52;;;;;;;;;;5064376;28;20017;-83
2022/12/08 08:03:46;;;;;;;14.48;8.52;;;;;;;;;;5088034;28;20028;-83
2022/12/08 08:06:12;;;;;;;15.05;9.30;;;;;;;;;;5069522;28;20063;-83
2022/12/08 08:08:38;;;;;;;14.05;9.10;;;;;;;;;;5088143;28;20025;-82
2022/12/08 08:11:07;;;;;;;14.70;9.50;;;;;;;;;;5086963;28;20042;-83
2022/12/08 08:13:36;;;;;;;17.10;9.45;;;;;;;;;;5068304;28;20075;-83
2022/12/08 08:16:02;;;;;;;16.77;9.88;;;;;;;;;;5087164;28;20021;-83
2022/12/08 08:18:28;;;;;;;18.17;10.48;;;;;;;;;;5068655;28;20029;-83
2022/12/08 08:20:54;;;;;;;20.00;10.15;;;;;;;;;;5069500;28;20021;-83
2022/12/08 08:23:20;;;;;;;16.05;10.88;;;;;;;;;;5069063;28;20077;-85
2022/12/08 08:25:47;;;;;;;19.83;10.98;;;;;;;;;;5070481;28;20028;-83
2022/12/08 08:28:14;;;;;;;18.25;10.27;;;;;;;;;;5069641;28;20021;-83
2022/12/08 08:30:40;;;;;;;18.02;11.15;;;;;;;;;;5069519;28;20035;-82
2022/12/08 08:33:06;;;;;;;17.85;11.07;;;;;;;;;;5087918;28;20078;-83
2022/12/08 08:35:33;;;;;;;20.90;11.93;;;;;;;;;;5086687;28;20028;-83
2022/12/08 08:37:59;;;;;;;21.02;11.27;;;;;;;;;;5069717;28;20035;-84
2022/12/08 08:40:25;;;;;;;19.67;11.00;;;;;;;;;;5070358;28;20028;-84
2022/12/08 08:42:51;;;;;;;19.40;10.93;;;;;;;;;;5070338;28;20043;-85
2022/12/08 08:45:17;;;;;;;17.80;10.00;;;;;;;;;;5069610;28;20068;-82
2022/12/08 08:47:43;;;;;;;15.95;10.93;;;;;;;;;;5088159;28;20028;-83
2022/12/08 08:50:09;;;;;;;22.20;11.63;;;;;;;;;;5070193;28;20098;-85
2022/12/08 08:52:35;;;;;;;17.15;10.07;;;;;;;;;;5070031;28;20051;-83
2022/12/08 08:55:01;;;;;;;19.05;10.95;;;;;;;;;;5087061;28;20020;-83
2022/12/08 08:57:27;;;;;;;21.27;11.82;;;;;;;;;;5069320;28;20029;-83
2022/12/08 08:59:53;;;;;;;19.08;11.30;;;;;;;;;;5065868;28;20545;-83
2022/12/08 09:02:20;;;;;;;19.48;12.05;;;;;;;;;;5050466;28;20383;-83
2022/12/08 09:04:46;;;;;;;18.92;10.90;;;;;;;;;;5067465;28;20025;-83
2022/12/08 09:07:12;;;;;;;18.98;11.65;;;;;;;;;;5050219;28;20025;-84
2022/12/08 09:09:39;;;;;;;20.83;12.38;;;;;;;;;;5067091;28;20029;-83
2022/12/08 09:12:05;;;;;;;17.17;10.27;;;;;;;;;;5066525;28;20032;-83
2022/12/08 09:14:31;;;;;;;17.85;11.07;;;;;;;;;;5049299;28;20036;-83
2022/12/08 09:16:57;;;;;;;17.80;9.43;;;;;;;;;;5067128;28;20088;-84
2022/12/08 09:19:23;;;;;;;15.40;10.07;;;;;;;;;;5066584;28;20549;-84
2022/12/08 09:21:49;;;;;;;17.98;8.95;;;;;;;;;;5048818;28;20041;-83
2022/12/08 09:24:15;;;;;;;16.88;9.52;;;;;;;;;;5048801;28;20100;-84
2022/12/08 09:26:45;;;;;;;17.70;9.90;;;;;;;;;;5055740;28;20013;-83
2022/12/08 09:29:13;;;;;;;16.42;9.77;;;;;;;;;;5059015;28;20101;-83
2022/12/08 09:31:39;;;;;;;16.63;9.25;;;;;;;;;;5072902;28;20021;-83
2022/12/08 09:34:05;;;;;;;17.75;9.70;;;;;;;;;;5052750;28;20029;-85
2022/12/08 09:36:31;;;;;;;15.55;8.70;;;;;;;;;;5070465;28;20055;-84
2022/12/08 09:38:57;;;;;;;16.95;9.57;;;;;;;;;;5052951;28;20033;-84
2022/12/08 09:41:34;;;;;;;18.25;9.52;;;;;;;;;;5051847;28;20028;-84
2022/12/08 09:44:00;;;;;;;14.60;9.07;;;;;;;;;;5052150;28;20021;-84
2022/12/08 09:46:28;;;;;;;18.58;9.40;;;;;;;;;;5069744;28;20109;-85
2022/12/08 09:48:56;;;;;;;15.45;9.82;;;;;;;;;;5051305;28;20085;-84
2022/12/08 09:51:24;;;;;;;16.50;9.73;;;;;;;;;;5070496;28;20025;-84
2022/12/08 09:53:55;;;;;;;15.82;9.70;;;;;;;;;;5051986;28;20021;-84
2022/12/08 09:56:22;;;;;;;16.10;9.03;;;;;;;;;;5068672;28;20035;-84
2022/12/08 09:58:57;;;;;;;17.10;9.50;;;;;;;;;;5051276;28;20027;-84
2022/12/08 10:01:27;;;;;;;15.18;8.68;;;;;;;;;;5067704;28;20040;-84
2022/12/08 10:03:56;;;;;;;14.50;7.55;;;;;;;;;;5070304;28;20096;-85
2022/12/08 10:06:33;;;;;;;13.32;8.05;;;;;;;;;;5088408;28;20031;-84
2022/12/08 10:09:08;;;;;;;12.48;7.18;;;;;;;;;;5070934;28;20020;-83
2022/12/08 10:11:44;;;;;;;12.45;7.05;;;;;;;;;;5088368;28;20050;-85
2022/12/08 10:14:28;;;;;;;14.73;8.23;;;;;;;;;;5070328;28;20025;-86
2022/12/08 10:16:58;;;;;;;12.30;7.07;;;;;;;;;;5070178;28;20123;-85
2022/12/08 10:19:26;;;;;;;13.20;6.90;;;;;;;;;;5088088;28;20514;-85
2022/12/08 10:21:53;;;;;;;12.05;6.25;;;;;;;;;;5088399;28;20111;-84
2022/12/08 10:24:19;;;;;;;12.85;7.22;;;;;;;;;;5070035;28;20047;-84
2022/12/08 10:26:45;;;;;;;11.52;6.30;;;;;;;;;;5069335;28;20088;-85
2022/12/08 10:29:12;;;;;;;13.25;7.03;;;;;;;;;;5075972;28;20132;-84
2022/12/08 10:31:38;;;;;;;15.02;7.88;;;;;;;;;;5073531;28;20055;-85
2022/12/08 10:34:16;;;;;;;13.90;7.68;;;;;;;;;;5088554;28;20070;-85
2022/12/08 10:36:45;;;;;;;11.18;7.75;;;;;;;;;;5070960;28;20016;-83
2022/12/08 10:39:31;;;;;;;9.25;5.90;;;;;;;;;;5088565;28;20053;-83
2022/12/08 10:42:09;;;;;;;9.98;5.20;;;;;;;;;;5070170;28;20025;-83
2022/12/08 10:44:39;;;;;;;10.15;5.95;;;;;;;;;;5069949;28;20020;-85
2022/12/08 10:47:12;;;;;;;10.90;6.70;;;;;;;;;;5087140;28;20094;-84
2022/12/08 10:49:38;;;;;;;12.02;7.53;;;;;;;;;;5087440;28;20050;-86
2022/12/08 10:52:09;;;;;;;12.18;7.03;;;;;;;;;;5067844;28;20092;-85
2022/12/08 10:54:40;;;;;;;16.48;8.88;;;;;;;;;;5068981;28;20123;-84
2022/12/08 10:57:19;;;;;;;13.63;7.95;;;;;;;;;;5069166;28;20028;-82
2022/12/08 10:59:45;;;;;;;17.27;9.02;;;;;;;;;;5065575;28;20092;-85
2022/12/08 11:02:17;;;;;;;13.65;7.13;;;;;;;;;;5048555;28;20052;-84
2022/12/08 11:04:43;;;;;;;12.90;7.35;;;;;;;;;;5049322;28;20025;-84
2022/12/08 11:07:10;;;;;;;16.15;9.15;;;;;;;;;;5052429;28;20033;-86
2022/12/08 11:09:47;;;;;;;15.40;8.63;;;;;;;;;;5066397;28;20111;-83
2022/12/08 11:12:14;;;;;;;15.07;8.10;;;;;;;;;;5076401;28;20028;-84
2022/12/08 11:14:43;;;;;;;16.48;7.90;;;;;;;;;;5048101;28;20048;-83
2022/12/08 11:17:38;;;;;;;14.98;8.32;;;;;;;;;;5081827;28;20027;-84
2022/12/08 11:20:05;;;;;;;14.00;8.02;;;;;;;;;;5064842;28;20031;-84
2022/12/08 11:22:31;;;;;;;15.45;8.20;;;;;;;;;;5067747;28;20043;-84
2022/12/08 11:25:10;;;;;;;17.35;9.50;;;;;;;;;;5068644;28;20444;-84
2022/12/08 11:27:37;;;;;;;14.10;8.43;;;;;;;;;;5084228;28;20020;-84
2022/12/08 11:30:06;;;;;;;15.93;9.20;;;;;;;;;;5047659;28;20029;-85
2022/12/08 11:32:33;;;;;;;18.77;9.88;;;;;;;;;;5046749;28;20052;-83
2022/12/08 11:34:59;;;;;;;18.13;7.82;;;;;;;;;;5045826;28;20110;-85
2022/12/08 11:37:28;;;;;;;17.13;9.38;;;;;;;;;;5065423;28;20418;-84
2022/12/08 11:39:55;;;;;;;15.38;8.95;;;;;;;;;;5048213;28;20044;-84
2022/12/08 11:42:24;;;;;;;15.75;9.25;;;;;;;;;;5047229;28;20021;-84
2022/12/08 11:44:52;;;;;;;19.10;10.27;;;;;;;;;;5063991;28;20025;-84
2022/12/08 11:47:22;;;;;;;15.95;9.98;;;;;;;;;;5064824;28;20033;-84
2022/12/08 11:49:50;;;;;;;17.05;9.63;;;;;;;;;;5046370;28;20029;-84
2022/12/08 11:52:19;;;;;;;17.67;9.43;;;;;;;;;;5047642;28;20025;-84
2022/12/08 11:54:51;;;;;;;12.43;7.32;;;;;;;;;;5066063;28;20056;-85
2022/12/08 11:57:20;;;;;;;16.95;8.75;;;;;;;;;;5046673;28;20029;-82
2022/12/08 11:59:50;;;;;;;15.60;9.48;;;;;;;;;;5064406;28;20395;-85
2022/12/08 12:02:22;;;;;;;15.90;9.45;;;;;;;;;;5047520;28;20033;-83
2022/12/08 12:05:04;;;;;;;16.52;9.07;;;;;;;;;;5072187;28;20163;-85
2022/12/08 12:07:44;;;;;;;16.40;9.23;;;;;;;;;;5084939;28;20048;-83
2022/12/08 12:10:16;;;;;;;15.68;8.55;;;;;;;;;;5085252;28;20025;-83
2022/12/08 12:12:57;;;;;;;17.80;9.33;;;;;;;;;;5084467;28;20085;-83
2022/12/08 12:15:36;;;;;;;19.30;9.93;;;;;;;;;;5067700;28;20273;-84
2022/12/08 12:18:04;;;;;;;16.88;8.73;;;;;;;;;;5067291;28;20020;-84
2022/12/08 12:20:35;;;;;;;14.60;7.85;;;;;;;;;;5084419;28;20016;-86
2022/12/08 12:23:04;;;;;;;19.02;9.32;;;;;;;;;;5084716;28;20021;-82
2022/12/08 12:25:32;;;;;;;18.38;10.45;;;;;;;;;;5073147;28;20028;-84
2022/12/08 12:28:00;;;;;;;16.95;8.45;;;;;;;;;;5069111;28;20025;-85
2022/12/08 12:30:27;;;;;;;17.15;9.95;;;;;;;;;;5067880;28;20028;-85
2022/12/08 12:32:53;;;;;;;16.50;9.23;;;;;;;;;;5084238;28;20027;-83
2022/12/08 12:35:25;;;;;;;18.80;9.25;;;;;;;;;;5066840;28;20032;-84
2022/12/08 12:37:55;;;;;;;15.82;9.23;;;;;;;;;;5067121;28;20020;-83
2022/12/08 12:40:23;;;;;;;17.90;9.57;;;;;;;;;;5085314;28;20065;-83
2022/12/08 12:42:55;;;;;;;15.13;9.35;;;;;;;;;;5067402;28;20052;-84
2022/12/08 12:45:21;;;;;;;17.48;9.35;;;;;;;;;;5066556;28;20402;-84
2022/12/08 12:47:48;;;;;;;18.02;9.65;;;;;;;;;;5067542;28;20108;-84
2022/12/08 12:50:37;;;;;;;17.15;9.75;;;;;;;;;;5070400;28;20029;-86
2022/12/08 12:53:04;;;;;;;17.23;9.63;;;;;;;;;;5090333;28;20078;-84
2022/12/08 12:55:57;;;;;;;17.70;10.57;;;;;;;;;;5067125;28;20029;-86
2022/12/08 12:58:23;;;;;;;15.98;9.13;;;;;;;;;;5077943;28;20501;-86
2022/12/08 13:00:49;;;;;;;14.80;8.98;;;;;;;;;;5066326;28;20028;-86
2022/12/08 13:03:16;;;;;;;18.67;10.18;;;;;;;;;;5068805;28;20016;-84
2022/12/08 13:05:48;;;;;;;17.33;9.70;;;;;;;;;;5071572;28;20315;-85
2022/12/08 13:08:19;;;;;;;18.42;11.40;;;;;;;;;;5047364;28;20029;-84
2022/12/08 13:11:02;;;;;;;18.17;9.88;;;;;;;;;;5046586;28;20036;-85
2022/12/08 13:13:28;;;;;;;17.67;10.13;;;;;;;;;;5046757;28;20032;-86
2022/12/08 13:16:02;;;;;;;17.90;10.35;;;;;;;;;;5046412;28;20025;-86
2022/12/08 13:18:35;;;;;;;16.55;9.88;;;;;;;;;;5042978;28;20033;-86
2022/12/08 13:21:04;;;;;;;17.55;10.63;;;;;;;;;;5044144;28;20032;-87
2022/12/08 13:23:36;;;;;;;19.52;10.80;;;;;;;;;;5047000;28;20017;-85
2022/12/08 13:26:21;;;;;;;18.35;10.07;;;;;;;;;;5065102;28;20404;-85
2022/12/08 13:29:00;;;;;;;17.10;9.77;;;;;;;;;;5047981;28;20028;-85
2022/12/08 13:31:39;;;;;;;19.65;10.00;;;;;;;;;;5050361;28;20056;-86
2022/12/08 13:34:25;;;;;;;20.73;11.20;;;;;;;;;;5049871;28;20033;-85
2022/12/08 13:36:56;;;;;;;20.08;10.80;;;;;;;;;;5052569;28;20063;-84
2022/12/08 13:39:26;;;;;;;20.88;10.98;;;;;;;;;;5047716;28;20392;-85
2022/12/08 13:42:00;;;;;;;16.92;10.13;;;;;;;;;;5064442;28;20036;-85
2022/12/08 13:44:31;;;;;;;19.30;11.05;;;;;;;;;;5046929;28;20013;-85
2022/12/08 13:46:57;;;;;;;19.77;10.98;;;;;;;;;;5048024;28;20526;-84
2022/12/08 13:49:38;;;;;;;20.38;12.18;;;;;;;;;;5048235;28;20020;-85
2022/12/08 13:52:06;;;;;;;21.13;11.38;;;;;;;;;;5047276;28;20021;-85
2022/12/08 13:54:34;;;;;;;19.75;12.13;;;;;;;;;;5046780;28;20079;-85
2022/12/08 13:57:01;;;;;;;21.30;12.48;;;;;;;;;;5064532;28;20025;-85
2022/12/08 13:59:29;;;;;;;21.80;11.80;;;;;;;;;;5045786;28;20048;-85
2022/12/08 14:01:56;;;;;;;22.52;12.20;;;;;;;;;;5066129;28;20033;-85
2022/12/08 14:04:23;;;;;;;20.77;11.77;;;;;;;;;;5049092;28;20021;-85
2022/12/08 14:06:52;;;;;;;17.88;11.30;;;;;;;;;;5047300;28;20040;-85
2022/12/08 14:09:22;;;;;;;19.35;10.98;;;;;;;;;;5045634;28;20031;-85
2022/12/08 14:11:57;;;;;;;20.05;11.68;;;;;;;;;;5063941;28;20508;-85
2022/12/08 14:14:44;;;;;;;19.33;10.75;;;;;;;;;;5046735;28;20033;-84
2022/12/08 14:17:21;;;;;;;20.42;11.38;;;;;;;;;;5047965;28;20420;-85
2022/12/08 14:19:55;;;;;;;21.77;11.73;;;;;;;;;;5052236;28;20032;-84
2022/12/08 14:22:21;;;;;;;22.65;11.23;;;;;;;;;;5051593;28;20025;-85
2022/12/08 14:24:52;;;;;;;20.48;11.25;;;;;;;;;;5048964;28;20433;-85
2022/12/08 14:27:19;;;;;;;16.83;10.10;;;;;;;;;;5048248;28;20025;-85
2022/12/08 14:29:53;;;;;;;18.40;10.98;;;;;;;;;;5047821;28;20025;-85
2022/12/08 14:32:24;;;;;;;22.38;11.43;;;;;;;;;;5065689;28;20031;-85
2022/12/08 14:34:53;;;;;;;22.70;11.45;;;;;;;;;;5064550;28;20083;-85
2022/12/08 14:37:19;;;;;;;23.00;12.65;;;;;;;;;;5064627;28;20465;-85
2022/12/08 14:39:46;;;;;;;24.05;13.80;;;;;;;;;;5046324;28;20025;-85
2022/12/08 14:42:20;;;;;;;23.98;13.75;;;;;;;;;;5047044;28;20467;-85